sensor_id;sensor_type;location;lat;lon;timestamp;pressure;altitude;pressure_sealevel;temperature;humidity
18569;BME280;14780;48.316;-1.050;2022-08-01T00:01:42;99522.25;;;26.70;46.30
18569;BME280;14780;48.316;-1.050;2022-08-01T00:04:27;99520.63;;;26.69;46.29
18569;BME280;14780;48.316;-1.050;2022-08-01T00:07:12;99511.84;;;26.67;46.41
18569;BME280;14780;48.316;-1.050;2022-08-01T00:09:57;99516.50;;;26.67;46.63
18569;BME280;14780;48.316;-1.050;2022-08-01T00:12:43;99510.22;;;26.66;46.69
18569;BME280;14780;48.316;-1.050;2022-08-01T00:15:28;99515.97;;;26.65;46.59
18569;BME280;14780;48.316;-1.050;2022-08-01T00:18:12;99517.09;;;26.64;46.65
18569;BME280;14780;48.316;-1.050;2022-08-01T00:20:57;99517.88;;;26.64;46.50
18569;BME280;14780;48.316;-1.050;2022-08-01T00:23:41;99521.75;;;26.63;46.49
18569;BME280;14780;48.316;-1.050;2022-08-01T00:26:26;99509.66;;;26.64;46.43
18569;BME280;14780;48.316;-1.050;2022-08-01T00:29:11;99516.25;;;26.63;46.51
18569;BME280;14780;48.316;-1.050;2022-08-01T00:31:56;99513.78;;;26.62;46.46
18569;BME280;14780;48.316;-1.050;2022-08-01T00:34:41;99511.03;;;26.62;46.55
18569;BME280;14780;48.316;-1.050;2022-08-01T00:37:25;99511.34;;;26.60;46.55
18569;BME280;14780;48.316;-1.050;2022-08-01T00:40:10;99508.06;;;26.58;46.53
18569;BME280;14780;48.316;-1.050;2022-08-01T00:42:55;99503.66;;;26.57;46.59
18569;BME280;14780;48.316;-1.050;2022-08-01T00:45:39;99508.06;;;26.58;46.63
18569;BME280;14780;48.316;-1.050;2022-08-01T00:48:24;99507.22;;;26.58;46.52
18569;BME280;14780;48.316;-1.050;2022-08-01T00:51:09;99512.97;;;26.56;46.80
18569;BME280;14780;48.316;-1.050;2022-08-01T00:53:54;99497.09;;;26.53;46.80
18569;BME280;14780;48.316;-1.050;2022-08-01T00:56:39;99497.31;;;26.52;46.70
18569;BME280;14780;48.316;-1.050;2022-08-01T00:59:23;99499.28;;;26.51;46.82
18569;BME280;14780;48.316;-1.050;2022-08-01T01:02:09;99497.59;;;26.50;46.97
18569;BME280;14780;48.316;-1.050;2022-08-01T01:04:54;99496.78;;;26.50;46.82
18569;BME280;14780;48.316;-1.050;2022-08-01T01:08:03;99495.97;;;26.54;46.58
18569;BME280;14780;48.316;-1.050;2022-08-01T01:10:57;99491.03;;;26.51;46.67
18569;BME280;14780;48.316;-1.050;2022-08-01T01:13:46;99493.50;;;26.48;46.88
18569;BME280;14780;48.316;-1.050;2022-08-01T01:16:33;99492.66;;;26.62;46.19
18569;BME280;14780;48.316;-1.050;2022-08-01T01:19:24;99488.31;;;26.46;46.77
18569;BME280;14780;48.316;-1.050;2022-08-01T01:22:36;99488.28;;;26.51;46.41
18569;BME280;14780;48.316;-1.050;2022-08-01T01:25:54;99492.16;;;26.45;46.83
18569;BME280;14780;48.316;-1.050;2022-08-01T01:29:12;99488.03;;;26.48;46.61
18569;BME280;14780;48.316;-1.050;2022-08-01T01:32:22;99486.13;;;26.38;47.00
18569;BME280;14780;48.316;-1.050;2022-08-01T01:35:21;99486.94;;;26.39;47.12
18569;BME280;14780;48.316;-1.050;2022-08-01T01:38:22;99494.31;;;26.43;46.92
18569;BME280;14780;48.316;-1.050;2022-08-01T01:41:09;99488.31;;;26.36;46.99
18569;BME280;14780;48.316;-1.050;2022-08-01T01:43:55;99484.22;;;26.34;47.09
18569;BME280;14780;48.316;-1.050;2022-08-01T01:46:41;99484.22;;;26.34;47.04
18569;BME280;14780;48.316;-1.050;2022-08-01T01:49:27;99483.41;;;26.33;47.05
18569;BME280;14780;48.316;-1.050;2022-08-01T01:52:17;99479.53;;;26.34;47.19
18569;BME280;14780;48.316;-1.050;2022-08-01T01:55:06;99473.25;;;26.34;47.04
18569;BME280;14780;48.316;-1.050;2022-08-01T01:57:53;99482.88;;;26.31;47.17
18569;BME280;14780;48.316;-1.050;2022-08-01T02:00:42;99482.28;;;26.29;47.26
18569;BME280;14780;48.316;-1.050;2022-08-01T02:03:28;99480.66;;;26.28;47.42
18569;BME280;14780;48.316;-1.050;2022-08-01T02:06:15;99474.63;;;26.26;47.37
18569;BME280;14780;48.316;-1.050;2022-08-01T02:09:02;99471.91;;;26.26;47.30
18569;BME280;14780;48.316;-1.050;2022-08-01T02:11:48;99466.41;;;26.26;47.26
18569;BME280;14780;48.316;-1.050;2022-08-01T02:14:34;99481.22;;;26.25;47.26
18569;BME280;14780;48.316;-1.050;2022-08-01T02:17:23;99481.50;;;26.24;47.56
18569;BME280;14780;48.316;-1.050;2022-08-01T02:20:09;99479.59;;;26.24;47.47
18569;BME280;14780;48.316;-1.050;2022-08-01T02:23:07;99474.09;;;26.24;47.38
18569;BME280;14780;48.316;-1.050;2022-08-01T02:25:55;99470.81;;;26.22;47.36
18569;BME280;14780;48.316;-1.050;2022-08-01T02:28:47;99469.72;;;26.23;47.51
18569;BME280;14780;48.316;-1.050;2022-08-01T02:31:35;99468.34;;;26.21;47.40
18569;BME280;14780;48.316;-1.050;2022-08-01T02:34:25;99467.25;;;26.22;47.31
18569;BME280;14780;48.316;-1.050;2022-08-01T02:37:12;99463.13;;;26.19;47.47
18569;BME280;14780;48.316;-1.050;2022-08-01T02:39:58;99474.38;;;26.18;47.68
18569;BME280;14780;48.316;-1.050;2022-08-01T02:42:45;99464.25;;;26.18;47.49
18569;BME280;14780;48.316;-1.050;2022-08-01T02:45:33;99468.09;;;26.17;47.51
18569;BME280;14780;48.316;-1.050;2022-08-01T02:48:21;99461.75;;;26.17;47.54
18569;BME280;14780;48.316;-1.050;2022-08-01T02:51:09;99466.44;;;26.16;47.71
18569;BME280;14780;48.316;-1.050;2022-08-01T02:53:57;99469.19;;;26.16;47.68
18569;BME280;14780;48.316;-1.050;2022-08-01T02:56:44;99469.47;;;26.15;47.67
18569;BME280;14780;48.316;-1.050;2022-08-01T02:59:32;99468.63;;;26.14;47.70
18569;BME280;14780;48.316;-1.050;2022-08-01T03:02:19;99470.28;;;26.15;47.54
18569;BME280;14780;48.316;-1.050;2022-08-01T03:05:06;99472.47;;;26.13;47.81
18569;BME280;14780;48.316;-1.050;2022-08-01T03:07:54;99468.94;;;26.13;47.61
18569;BME280;14780;48.316;-1.050;2022-08-01T03:10:41;99462.59;;;26.12;47.64
18569;BME280;14780;48.316;-1.050;2022-08-01T03:13:27;99464.53;;;26.12;47.72
18569;BME280;14780;48.316;-1.050;2022-08-01T03:16:14;99460.44;;;26.09;47.73
18569;BME280;14780;48.316;-1.050;2022-08-01T03:19:00;99462.06;;;26.10;47.89
18569;BME280;14780;48.316;-1.050;2022-08-01T03:21:47;99457.13;;;26.07;47.90
18569;BME280;14780;48.316;-1.050;2022-08-01T03:24:33;99458.50;;;26.10;47.72
18569;BME280;14780;48.316;-1.050;2022-08-01T03:27:21;99451.09;;;26.10;47.70
18569;BME280;14780;48.316;-1.050;2022-08-01T03:30:07;99455.47;;;26.06;47.95
18569;BME280;14780;48.316;-1.050;2022-08-01T03:32:52;99458.53;;;26.05;47.86
18569;BME280;14780;48.316;-1.050;2022-08-01T03:35:51;99467.03;;;26.08;47.87
18569;BME280;14780;48.316;-1.050;2022-08-01T03:38:39;99461.81;;;26.07;47.89
18569;BME280;14780;48.316;-1.050;2022-08-01T03:41:27;99453.84;;;26.05;47.97
18569;BME280;14780;48.316;-1.050;2022-08-01T03:44:20;99464.81;;;26.05;47.84
18569;BME280;14780;48.316;-1.050;2022-08-01T03:47:09;99454.41;;;26.02;48.16
18569;BME280;14780;48.316;-1.050;2022-08-01T03:49:55;99458.25;;;26.01;47.98
18569;BME280;14780;48.316;-1.050;2022-08-01T03:52:44;99466.19;;;26.03;47.93
18569;BME280;14780;48.316;-1.050;2022-08-01T03:55:31;99470.03;;;26.02;47.96
18569;BME280;14780;48.316;-1.050;2022-08-01T03:58:17;99469.50;;;26.00;48.02
18569;BME280;14780;48.316;-1.050;2022-08-01T04:01:03;99467.03;;;25.98;47.95
18569;BME280;14780;48.316;-1.050;2022-08-01T04:03:48;99461.00;;;25.96;48.05
18569;BME280;14780;48.316;-1.050;2022-08-01T04:06:33;99466.47;;;25.96;48.09
18569;BME280;14780;48.316;-1.050;2022-08-01T04:09:22;99455.50;;;25.96;48.20
18569;BME280;14780;48.316;-1.050;2022-08-01T04:12:07;99462.09;;;25.95;48.15
18569;BME280;14780;48.316;-1.050;2022-08-01T04:14:51;99462.38;;;25.94;48.29
18569;BME280;14780;48.316;-1.050;2022-08-01T04:17:36;99457.72;;;25.94;48.14
18569;BME280;14780;48.316;-1.050;2022-08-01T04:20:21;99457.16;;;25.92;48.36
18569;BME280;14780;48.316;-1.050;2022-08-01T04:23:06;99468.13;;;25.92;48.19
18569;BME280;14780;48.316;-1.050;2022-08-01T04:25:53;99463.75;;;25.91;48.18
18569;BME280;14780;48.316;-1.050;2022-08-01T04:28:40;99458.78;;;25.93;48.39
18569;BME280;14780;48.316;-1.050;2022-08-01T04:31:26;99466.22;;;25.93;48.31
18569;BME280;14780;48.316;-1.050;2022-08-01T04:34:15;99463.47;;;25.93;48.38
18569;BME280;14780;48.316;-1.050;2022-08-01T04:37:01;99467.59;;;25.90;48.38
18569;BME280;14780;48.316;-1.050;2022-08-01T04:39:47;99460.47;;;25.89;48.44
18569;BME280;14780;48.316;-1.050;2022-08-01T04:42:33;99453.34;;;25.88;48.48
18569;BME280;14780;48.316;-1.050;2022-08-01T04:45:18;99458.81;;;25.88;48.53
18569;BME280;14780;48.316;-1.050;2022-08-01T04:48:05;99473.34;;;25.89;48.48
18569;BME280;14780;48.316;-1.050;2022-08-01T04:50:53;99473.59;;;25.87;48.54
18569;BME280;14780;48.316;-1.050;2022-08-01T04:53:39;99472.53;;;25.88;48.46
18569;BME280;14780;48.316;-1.050;2022-08-01T04:56:24;99471.97;;;25.86;48.48
18569;BME280;14780;48.316;-1.050;2022-08-01T04:59:09;99467.56;;;25.85;48.53
18569;BME280;14780;48.316;-1.050;2022-08-01T05:02:15;99463.44;;;25.88;48.48
18569;BME280;14780;48.316;-1.050;2022-08-01T05:05:01;99468.38;;;25.86;48.58
18569;BME280;14780;48.316;-1.050;2022-08-01T05:07:45;99482.94;;;25.86;48.58
18569;BME280;14780;48.316;-1.050;2022-08-01T05:10:30;99481.81;;;25.87;48.51
18569;BME280;14780;48.316;-1.050;2022-08-01T05:13:15;99476.34;;;25.87;48.61
18569;BME280;14780;48.316;-1.050;2022-08-01T05:16:00;99478.81;;;25.89;48.52
18569;BME280;14780;48.316;-1.050;2022-08-01T05:18:48;99477.44;;;25.86;48.67
18569;BME280;14780;48.316;-1.050;2022-08-01T05:21:32;99474.19;;;25.89;48.64
18569;BME280;14780;48.316;-1.050;2022-08-01T05:24:17;99480.19;;;25.86;48.64
18569;BME280;14780;48.316;-1.050;2022-08-01T05:27:01;99478.56;;;25.90;48.54
18569;BME280;14780;48.316;-1.050;2022-08-01T05:29:47;99474.19;;;25.89;48.44
18569;BME280;14780;48.316;-1.050;2022-08-01T05:32:32;99475.28;;;25.88;48.68
18569;BME280;14780;48.316;-1.050;2022-08-01T05:35:16;99490.06;;;25.87;48.73
18569;BME280;14780;48.316;-1.050;2022-08-01T05:38:01;99496.34;;;25.88;48.67
18569;BME280;14780;48.316;-1.050;2022-08-01T05:40:46;99491.47;;;25.90;48.70
18569;BME280;14780;48.316;-1.050;2022-08-01T05:43:30;99482.63;;;25.88;48.64
18569;BME280;14780;48.316;-1.050;2022-08-01T05:46:15;99488.13;;;25.88;48.64
18569;BME280;14780;48.316;-1.050;2022-08-01T05:49:02;99493.38;;;25.89;48.68
18569;BME280;14780;48.316;-1.050;2022-08-01T05:51:47;99482.63;;;25.88;48.77
18569;BME280;14780;48.316;-1.050;2022-08-01T05:54:31;99486.25;;;25.88;48.76
18569;BME280;14780;48.316;-1.050;2022-08-01T05:57:16;99493.38;;;25.89;48.81
18569;BME280;14780;48.316;-1.050;2022-08-01T06:00:01;99488.16;;;25.93;48.72
18569;BME280;14780;48.316;-1.050;2022-08-01T06:02:46;99489.25;;;25.92;48.74
18569;BME280;14780;48.316;-1.050;2022-08-01T06:05:31;99486.22;;;25.93;48.61
18569;BME280;14780;48.316;-1.050;2022-08-01T06:08:16;99488.94;;;25.93;48.66
18569;BME280;14780;48.316;-1.050;2022-08-01T06:11:01;99497.19;;;25.98;48.69
18569;BME280;14780;48.316;-1.050;2022-08-01T06:13:46;99485.41;;;25.98;48.79
18569;BME280;14780;48.316;-1.050;2022-08-01T06:16:31;99477.16;;;26.03;48.68
18569;BME280;14780;48.316;-1.050;2022-08-01T06:19:16;99498.56;;;26.06;48.73
18569;BME280;14780;48.316;-1.050;2022-08-01T06:22:01;99505.41;;;26.08;48.79
18569;BME280;14780;48.316;-1.050;2022-08-01T06:24:46;99510.34;;;26.11;48.65
18569;BME280;14780;48.316;-1.050;2022-08-01T06:27:31;99505.13;;;26.15;48.59
18569;BME280;14780;48.316;-1.050;2022-08-01T06:30:21;99504.84;;;26.16;48.53
18569;BME280;14780;48.316;-1.050;2022-08-01T06:33:06;99511.44;;;26.15;48.65
18569;BME280;14780;48.316;-1.050;2022-08-01T06:35:51;99505.38;;;26.13;48.65
18569;BME280;14780;48.316;-1.050;2022-08-01T06:38:36;99504.84;;;26.11;48.52
18569;BME280;14780;48.316;-1.050;2022-08-01T06:41:21;99494.16;;;26.10;48.58
18569;BME280;14780;48.316;-1.050;2022-08-01T06:44:06;99506.75;;;26.11;48.61
18569;BME280;14780;48.316;-1.050;2022-08-01T06:46:51;99501.28;;;26.11;48.65
18569;BME280;14780;48.316;-1.050;2022-08-01T06:49:36;99503.22;;;26.10;48.55
18569;BME280;14780;48.316;-1.050;2022-08-01T06:52:21;99500.47;;;26.10;48.67
18569;BME280;14780;48.316;-1.050;2022-08-01T06:55:05;99505.69;;;26.12;48.70
18569;BME280;14780;48.316;-1.050;2022-08-01T06:57:51;99508.44;;;26.12;48.61
18569;BME280;14780;48.316;-1.050;2022-08-01T07:00:37;99521.84;;;26.13;48.72
18569;BME280;14780;48.316;-1.050;2022-08-01T07:03:21;99528.97;;;26.14;48.49
18569;BME280;14780;48.316;-1.050;2022-08-01T07:06:06;99514.97;;;26.16;48.47
18569;BME280;14780;48.316;-1.050;2022-08-01T07:08:53;99520.19;;;26.17;48.62
18569;BME280;14780;48.316;-1.050;2022-08-01T07:11:37;99508.13;;;26.18;48.42
18569;BME280;14780;48.316;-1.050;2022-08-01T07:14:23;99515.78;;;26.21;48.54
18569;BME280;14780;48.316;-1.050;2022-08-01T07:17:08;99528.13;;;26.24;48.40
18569;BME280;14780;48.316;-1.050;2022-08-01T07:19:53;99521.84;;;26.23;48.52
18569;BME280;14780;48.316;-1.050;2022-08-01T07:22:39;99514.41;;;26.24;48.45
18569;BME280;14780;48.316;-1.050;2022-08-01T07:25:23;99523.75;;;26.28;48.43
18569;BME280;14780;48.316;-1.050;2022-08-01T07:28:08;99522.38;;;26.30;48.43
18569;BME280;14780;48.316;-1.050;2022-08-01T07:30:53;99517.16;;;26.34;48.38
18569;BME280;14780;48.316;-1.050;2022-08-01T07:33:38;99517.69;;;26.36;48.42
18569;BME280;14780;48.316;-1.050;2022-08-01T07:36:22;99518.78;;;26.35;48.21
18569;BME280;14780;48.316;-1.050;2022-08-01T07:39:07;99511.41;;;26.30;48.34
18569;BME280;14780;48.316;-1.050;2022-08-01T07:41:51;99517.16;;;26.29;48.23
18569;BME280;14780;48.316;-1.050;2022-08-01T07:44:36;99533.88;;;26.27;48.40
18569;BME280;14780;48.316;-1.050;2022-08-01T07:47:25;99532.78;;;26.28;48.25
18569;BME280;14780;48.316;-1.050;2022-08-01T07:50:10;99529.78;;;26.25;48.23
18569;BME280;14780;48.316;-1.050;2022-08-01T07:52:56;99528.97;;;26.24;48.24
18569;BME280;14780;48.316;-1.050;2022-08-01T07:55:41;99521.28;;;26.26;48.37
18569;BME280;14780;48.316;-1.050;2022-08-01T07:58:26;99523.19;;;26.31;48.25
18569;BME280;14780;48.316;-1.050;2022-08-01T08:01:10;99522.34;;;26.35;48.19
18569;BME280;14780;48.316;-1.050;2022-08-01T08:03:55;99521.25;;;26.36;48.22
18569;BME280;14780;48.316;-1.050;2022-08-01T08:06:39;99525.91;;;26.36;48.21
18569;BME280;14780;48.316;-1.050;2022-08-01T08:09:25;99530.56;;;26.35;48.23
18569;BME280;14780;48.316;-1.050;2022-08-01T08:12:10;99534.41;;;26.34;48.27
18569;BME280;14780;48.316;-1.050;2022-08-01T08:14:57;99530.31;;;26.32;48.07
18569;BME280;14780;48.316;-1.050;2022-08-01T08:17:43;99525.91;;;26.31;48.24
18569;BME280;14780;48.316;-1.050;2022-08-01T08:20:28;99531.16;;;26.32;48.13
18569;BME280;14780;48.316;-1.050;2022-08-01T08:23:13;99537.16;;;26.29;48.27
18569;BME280;14780;48.316;-1.050;2022-08-01T08:26:17;99537.16;;;26.29;48.10
18569;BME280;14780;48.316;-1.050;2022-08-01T08:29:01;99544.31;;;26.30;48.14
18569;BME280;14780;48.316;-1.050;2022-08-01T08:31:46;99542.38;;;26.31;48.21
18569;BME280;14780;48.316;-1.050;2022-08-01T08:34:30;99546.78;;;26.32;48.00
18569;BME280;14780;48.316;-1.050;2022-08-01T08:37:16;99548.72;;;26.31;48.09
18569;BME280;14780;48.316;-1.050;2022-08-01T08:40:02;99542.13;;;26.32;47.97
18569;BME280;14780;48.316;-1.050;2022-08-01T08:42:48;99544.31;;;26.30;47.97
18569;BME280;14780;48.316;-1.050;2022-08-01T08:45:33;99541.59;;;26.30;48.14
18569;BME280;14780;48.316;-1.050;2022-08-01T08:48:18;99536.63;;;26.32;48.02
18569;BME280;14780;48.316;-1.050;2022-08-01T08:51:03;99549.25;;;26.33;48.03
18569;BME280;14780;48.316;-1.050;2022-08-01T08:53:48;99545.41;;;26.34;48.20
18569;BME280;14780;48.316;-1.050;2022-08-01T08:56:35;99556.91;;;26.36;48.15
18569;BME280;14780;48.316;-1.050;2022-08-01T08:59:20;99558.00;;;26.35;48.18
18569;BME280;14780;48.316;-1.050;2022-08-01T09:02:07;99548.69;;;26.36;48.08
18569;BME280;14780;48.316;-1.050;2022-08-01T09:04:54;99551.41;;;26.36;48.19
18569;BME280;14780;48.316;-1.050;2022-08-01T09:07:39;99556.63;;;26.38;48.11
18569;BME280;14780;48.316;-1.050;2022-08-01T09:10:26;99551.72;;;26.35;48.11
18569;BME280;14780;48.316;-1.050;2022-08-01T09:13:13;99557.22;;;26.35;48.12
18569;BME280;14780;48.316;-1.050;2022-08-01T09:15:58;99558.31;;;26.34;48.13
18569;BME280;14780;48.316;-1.050;2022-08-01T09:18:43;99565.13;;;26.36;48.02
18569;BME280;14780;48.316;-1.050;2022-08-01T09:21:29;99560.47;;;26.37;48.14
18569;BME280;14780;48.316;-1.050;2022-08-01T09:24:15;99568.97;;;26.40;47.98
18569;BME280;14780;48.316;-1.050;2022-08-01T09:27:01;99572.00;;;26.44;48.02
18569;BME280;14780;48.316;-1.050;2022-08-01T09:29:46;99571.16;;;26.43;48.01
18569;BME280;14780;48.316;-1.050;2022-08-01T09:32:31;99570.09;;;26.44;47.96
18569;BME280;14780;48.316;-1.050;2022-08-01T09:35:25;99558.56;;;26.52;47.80
18569;BME280;14780;48.316;-1.050;2022-08-01T09:38:15;99554.44;;;26.50;47.95
18569;BME280;14780;48.316;-1.050;2022-08-01T09:41:00;99560.72;;;26.50;47.78
18569;BME280;14780;48.316;-1.050;2022-08-01T09:43:49;99559.66;;;26.51;47.77
18569;BME280;14780;48.316;-1.050;2022-08-01T09:46:35;99555.81;;;26.47;47.86
18569;BME280;14780;48.316;-1.050;2022-08-01T09:49:35;99567.03;;;26.61;47.58
18569;BME280;14780;48.316;-1.050;2022-08-01T09:52:22;99569.50;;;26.57;47.59
18569;BME280;14780;48.316;-1.050;2022-08-01T09:55:08;99577.75;;;26.57;47.82
18569;BME280;14780;48.316;-1.050;2022-08-01T09:57:57;99569.78;;;26.61;47.71
18569;BME280;14780;48.316;-1.050;2022-08-01T10:00:58;99570.31;;;26.73;47.53
18569;BME280;14780;48.316;-1.050;2022-08-01T10:03:44;99572.78;;;26.69;47.66
18569;BME280;14780;48.316;-1.050;2022-08-01T10:06:29;99564.53;;;26.69;47.50
18569;BME280;14780;48.316;-1.050;2022-08-01T10:09:14;99569.78;;;26.71;47.72
18569;BME280;14780;48.316;-1.050;2022-08-01T10:12:00;99569.47;;;26.72;47.64
18569;BME280;14780;48.316;-1.050;2022-08-01T10:14:47;99561.53;;;26.71;47.42
18569;BME280;14780;48.316;-1.050;2022-08-01T10:17:34;99568.94;;;26.70;47.60
18569;BME280;14780;48.316;-1.050;2022-08-01T10:20:28;99563.44;;;26.75;47.30
18569;BME280;14780;48.316;-1.050;2022-08-01T10:23:13;99567.03;;;26.71;47.37
18569;BME280;14780;48.316;-1.050;2022-08-01T10:25:59;99570.03;;;26.69;47.28
18569;BME280;14780;48.316;-1.050;2022-08-01T10:28:45;99570.59;;;26.66;47.38
18569;BME280;14780;48.316;-1.050;2022-08-01T10:31:32;99573.88;;;26.68;47.33
18569;BME280;14780;48.316;-1.050;2022-08-01T10:34:17;99568.41;;;26.68;47.34
18569;BME280;14780;48.316;-1.050;2022-08-01T10:37:04;99583.22;;;26.67;47.44
18569;BME280;14780;48.316;-1.050;2022-08-01T10:39:51;99569.25;;;26.64;47.51
18569;BME280;14780;48.316;-1.050;2022-08-01T10:42:38;99584.88;;;26.63;47.51
18569;BME280;14780;48.316;-1.050;2022-08-01T10:45:24;99599.72;;;26.62;47.60
18569;BME280;14780;48.316;-1.050;2022-08-01T10:51:05;99575.56;;;26.59;47.40
18569;BME280;14780;48.316;-1.050;2022-08-01T10:53:52;99571.72;;;26.60;47.50
18569;BME280;14780;48.316;-1.050;2022-08-01T10:56:44;99581.03;;;26.64;47.27
18569;BME280;14780;48.316;-1.050;2022-08-01T10:59:30;99568.69;;;26.62;47.40
18569;BME280;14780;48.316;-1.050;2022-08-01T11:02:27;99563.16;;;26.72;47.47
18569;BME280;14780;48.316;-1.050;2022-08-01T11:05:19;99574.69;;;26.79;47.48
18569;BME280;14780;48.316;-1.050;2022-08-01T11:08:32;99570.53;;;26.86;46.99
18569;BME280;14780;48.316;-1.050;2022-08-01T11:11:21;99565.34;;;26.75;47.27
18569;BME280;14780;48.316;-1.050;2022-08-01T11:14:06;99564.53;;;26.74;47.29
18569;BME280;14780;48.316;-1.050;2022-08-01T11:16:53;99569.47;;;26.77;47.15
18569;BME280;14780;48.316;-1.050;2022-08-01T11:20:03;99568.06;;;26.85;47.01
18569;BME280;14780;48.316;-1.050;2022-08-01T11:28:31;99571.66;;;26.80;47.19
18569;BME280;14780;48.316;-1.050;2022-08-01T11:34:01;99557.38;;;26.78;47.07
18569;BME280;14780;48.316;-1.050;2022-08-01T11:36:46;99557.94;;;26.75;47.13
18569;BME280;14780;48.316;-1.050;2022-08-01T11:39:31;99568.66;;;26.77;47.37
18569;BME280;14780;48.316;-1.050;2022-08-01T11:42:19;99558.22;;;26.79;47.04
18569;BME280;14780;48.316;-1.050;2022-08-01T11:45:06;99560.09;;;26.83;47.18
18569;BME280;14780;48.316;-1.050;2022-08-01T11:47:54;99552.66;;;26.89;47.13
18569;BME280;14780;48.316;-1.050;2022-08-01T11:50:41;99550.72;;;26.94;46.93
18569;BME280;14780;48.316;-1.050;2022-08-01T11:53:26;99554.03;;;26.96;47.16
18569;BME280;14780;48.316;-1.050;2022-08-01T11:56:11;99545.47;;;26.98;46.82
18569;BME280;14780;48.316;-1.050;2022-08-01T11:59:00;99555.66;;;26.97;46.91
18569;BME280;14780;48.316;-1.050;2022-08-01T12:01:45;99547.41;;;26.97;46.95
18569;BME280;14780;48.316;-1.050;2022-08-01T12:04:55;99553.97;;;27.06;46.68
18569;BME280;14780;48.316;-1.050;2022-08-01T12:07:41;99549.59;;;27.00;46.89
18569;BME280;14780;48.316;-1.050;2022-08-01T12:10:29;99543.56;;;26.98;47.07
18569;BME280;14780;48.316;-1.050;2022-08-01T12:13:16;99544.09;;;27.00;46.83
18569;BME280;14780;48.316;-1.050;2022-08-01T12:16:08;99549.03;;;27.03;46.91
18569;BME280;14780;48.316;-1.050;2022-08-01T12:18:53;99542.47;;;26.99;46.80
18569;BME280;14780;48.316;-1.050;2022-08-01T12:21:38;99546.31;;;26.98;46.89
18569;BME280;14780;48.316;-1.050;2022-08-01T12:24:23;99552.63;;;26.99;46.77
18569;BME280;14780;48.316;-1.050;2022-08-01T12:27:10;99550.16;;;27.02;47.00
18569;BME280;14780;48.316;-1.050;2022-08-01T12:29:57;99547.34;;;27.07;46.85
18569;BME280;14780;48.316;-1.050;2022-08-01T12:32:45;99553.97;;;27.16;46.91
18569;BME280;14780;48.316;-1.050;2022-08-01T12:35:31;99546.25;;;27.18;46.66
18569;BME280;14780;48.316;-1.050;2022-08-01T12:38:18;99550.38;;;27.16;46.65
18569;BME280;14780;48.316;-1.050;2022-08-01T12:41:03;99552.31;;;27.10;46.52
18569;BME280;14780;48.316;-1.050;2022-08-01T12:43:48;99557.81;;;27.05;46.64
18569;BME280;14780;48.316;-1.050;2022-08-01T12:46:33;99546.81;;;27.05;46.85
18569;BME280;14780;48.316;-1.050;2022-08-01T12:49:18;99542.97;;;27.06;46.64
18569;BME280;14780;48.316;-1.050;2022-08-01T12:52:04;99548.19;;;27.08;46.91
18569;BME280;14780;48.316;-1.050;2022-08-01T12:55:05;99542.13;;;27.16;46.69
18569;BME280;14780;48.316;-1.050;2022-08-01T12:58:12;99550.63;;;27.24;46.52
18569;BME280;14780;48.316;-1.050;2022-08-01T13:01:09;99535.50;;;27.22;46.39
18569;BME280;14780;48.316;-1.050;2022-08-01T13:04:02;99549.00;;;27.18;46.60
18569;BME280;14780;48.316;-1.050;2022-08-01T13:06:52;99552.28;;;27.15;46.58
18569;BME280;14780;48.316;-1.050;2022-08-01T13:09:40;99553.13;;;27.16;46.79
18569;BME280;14780;48.316;-1.050;2022-08-01T13:12:32;99553.38;;;27.19;46.79
18569;BME280;14780;48.316;-1.050;2022-08-01T13:15:21;99551.16;;;27.21;46.48
18569;BME280;14780;48.316;-1.050;2022-08-01T13:18:26;99547.81;;;27.29;46.18
18569;BME280;14780;48.316;-1.050;2022-08-01T13:21:16;99553.38;;;27.24;46.58
18569;BME280;14780;48.316;-1.050;2022-08-01T13:24:12;99557.16;;;27.28;46.48
18569;BME280;14780;48.316;-1.050;2022-08-01T13:26:59;99557.22;;;27.23;46.57
18569;BME280;14780;48.316;-1.050;2022-08-01T13:29:44;99553.91;;;27.21;46.42
18569;BME280;14780;48.316;-1.050;2022-08-01T13:32:30;99557.75;;;27.20;46.52
18569;BME280;14780;48.316;-1.050;2022-08-01T13:35:15;99566.28;;;27.19;46.44
18569;BME280;14780;48.316;-1.050;2022-08-01T13:38:04;99547.34;;;27.17;46.38
18569;BME280;14780;48.316;-1.050;2022-08-01T13:40:49;99547.34;;;27.12;46.55
18569;BME280;14780;48.316;-1.050;2022-08-01T13:43:41;99560.81;;;27.14;46.44
18569;BME280;14780;48.316;-1.050;2022-08-01T13:46:26;99552.84;;;27.12;46.51
18569;BME280;14780;48.316;-1.050;2022-08-01T13:49:12;99555.59;;;27.12;46.48
18569;BME280;14780;48.316;-1.050;2022-08-01T13:51:57;99551.19;;;27.11;46.56
18569;BME280;14780;48.316;-1.050;2022-08-01T13:54:41;99550.34;;;27.11;46.67
18569;BME280;14780;48.316;-1.050;2022-08-01T13:57:27;99548.97;;;27.13;46.72
18569;BME280;14780;48.316;-1.050;2022-08-01T14:00:12;99553.97;;;27.16;46.60
18569;BME280;14780;48.316;-1.050;2022-08-01T14:02:57;99554.22;;;27.20;46.56
18569;BME280;14780;48.316;-1.050;2022-08-01T14:05:43;99550.34;;;27.21;46.70
18569;BME280;14780;48.316;-1.050;2022-08-01T14:08:28;99553.09;;;27.21;46.53
18569;BME280;14780;48.316;-1.050;2022-08-01T14:11:13;99559.41;;;27.21;46.49
18569;BME280;14780;48.316;-1.050;2022-08-01T14:13:58;99549.00;;;27.18;46.41
18569;BME280;14780;48.316;-1.050;2022-08-01T14:16:43;99551.22;;;27.16;46.37
18569;BME280;14780;48.316;-1.050;2022-08-01T14:19:29;99545.41;;;27.18;46.53
18569;BME280;14780;48.316;-1.050;2022-08-01T14:22:13;99541.56;;;27.19;46.60
18569;BME280;14780;48.316;-1.050;2022-08-01T14:24:58;99552.28;;;27.20;46.61
18569;BME280;14780;48.316;-1.050;2022-08-01T14:27:43;99548.97;;;27.23;46.58
18569;BME280;14780;48.316;-1.050;2022-08-01T14:30:28;99546.06;;;27.48;46.82
18569;BME280;14780;48.316;-1.050;2022-08-01T14:33:14;99547.41;;;27.56;46.08
18569;BME280;14780;48.316;-1.050;2022-08-01T14:35:58;99550.53;;;27.39;46.21
18569;BME280;14780;48.316;-1.050;2022-08-01T14:38:43;99544.78;;;27.36;46.41
18569;BME280;14780;48.316;-1.050;2022-08-01T14:41:28;99541.56;;;27.62;46.21
18569;BME280;14780;48.316;-1.050;2022-08-01T14:44:13;99543.13;;;27.73;45.62
18569;BME280;14780;48.316;-1.050;2022-08-01T14:46:57;99546.19;;;28.05;45.78